Time;durP1;ratioP1;P1;durP2;ratioP2;P2;SDS_P1;SDS_P2;PMS_P1;PMS_P2;Temp;Humidity;BMP_temperature;BMP_pressure;BME280_temperature;BME280_humidity;BME280_pressure;Samples;Min_cycle;Max_cycle;Signal;HPM_P1;HPM_P2
2023/01/25 04:04:33;;;;;;;23.50;16.92;;;11.40;57.20;;;;;;5751014;23;20065;-72
2023/01/25 04:07:01;;;;;;;27.15;18.00;;;11.40;57.60;;;;;;4833420;29;20068;-71
2023/01/25 04:09:27;;;;;;;26.02;18.35;;;11.40;57.20;;;;;;4865388;29;20449;-72
2023/01/25 04:11:53;;;;;;;29.65;20.08;;;11.40;56.80;;;;;;4865189;29;20086;-74
2023/01/25 04:14:18;;;;;;;23.88;18.00;;;11.40;56.40;;;;;;4864075;29;20052;-76
2023/01/25 04:16:44;;;;;;;32.25;20.75;;;11.40;56.20;;;;;;4864912;29;20365;-74
2023/01/25 04:19:10;;;;;;;23.23;18.95;;;11.40;56.10;;;;;;4865014;29;20402;-75
2023/01/25 04:21:36;;;;;;;25.92;20.45;;;11.40;55.90;;;;;;4849038;29;20045;-75
2023/01/25 04:24:36;;;;;;;30.38;20.70;;;11.30;55.70;;;;;;4864821;29;20369;-73
2023/01/25 04:27:04;;;;;;;24.42;20.10;;;11.30;55.50;;;;;;4847092;29;20326;-73
2023/01/25 04:29:33;;;;;;;27.92;21.58;;;11.30;55.50;;;;;;4862191;29;20078;-76
2023/01/25 04:31:59;;;;;;;27.02;21.63;;;11.30;55.30;;;;;;4847911;29;20053;-75
2023/01/25 04:34:25;;;;;;;30.38;22.00;;;11.20;55.20;;;;;;4832793;29;20046;-76
2023/01/25 04:36:50;;;;;;;22.63;18.75;;;11.20;56.30;;;;;;4864839;29;20054;-76
2023/01/25 04:39:16;;;;;;;23.88;19.95;;;11.30;56.50;;;;;;4864983;29;20038;-76
2023/01/25 04:41:42;;;;;;;27.58;19.48;;;11.20;57.00;;;;;;4864547;29;20113;-74
2023/01/25 04:44:08;;;;;;;21.15;16.92;;;11.20;56.90;;;;;;4864498;29;20112;-73
2023/01/25 04:46:33;;;;;;;23.33;17.95;;;11.30;56.80;;;;;;4864708;29;20075;-73
2023/01/25 04:49:02;;;;;;;18.08;15.40;;;11.50;57.00;;;;;;4864387;29;20054;-76
2023/01/25 04:51:27;;;;;;;17.80;14.73;;;11.60;57.00;;;;;;4864284;29;20041;-76
2023/01/25 04:53:53;;;;;;;18.30;14.57;;;11.70;57.00;;;;;;4856987;29;20045;-75
2023/01/25 04:56:25;;;;;;;15.88;13.63;;;11.90;57.20;;;;;;4847940;29;20361;-79
2023/01/25 04:58:51;;;;;;;16.88;13.10;;;12.10;57.90;;;;;;4864381;29;20092;-78
2023/01/25 05:01:17;;;;;;;16.35;12.30;;;12.30;57.30;;;;;;4847710;29;20073;-77
2023/01/25 05:03:42;;;;;;;17.48;14.00;;;12.40;57.40;;;;;;4847597;29;20034;-78
2023/01/25 05:06:08;;;;;;;20.42;12.90;;;12.00;55.90;;;;;;4855065;29;20053;-78
2023/01/25 05:08:34;;;;;;;28.05;13.05;;;12.10;58.10;;;;;;4855770;29;20048;-80
2023/01/25 05:11:00;;;;;;;24.92;12.15;;;12.30;59.40;;;;;;4873913;29;20033;-79
2023/01/25 05:13:25;;;;;;;19.90;11.65;;;12.40;58.90;;;;;;4854850;29;20064;-78
2023/01/25 05:15:51;;;;;;;24.40;11.95;;;12.60;59.20;;;;;;4840623;29;20480;-79
2023/01/25 05:18:17;;;;;;;23.27;10.88;;;12.70;59.40;;;;;;4866896;29;20056;-80
2023/01/25 05:20:43;;;;;;;17.67;10.70;;;12.80;59.60;;;;;;4847703;29;20128;-79
2023/01/25 05:23:08;;;;;;;17.10;9.73;;;12.90;59.60;;;;;;4831439;29;20049;-77
2023/01/25 05:28:19;;;;;;;17.80;9.35;;;13.10;59.20;;;;;;4846953;29;20540;-78
2023/01/25 05:30:45;;;;;;;20.45;9.55;;;13.20;59.10;;;;;;4844852;29;20137;-77
2023/01/25 05:33:10;;;;;;;16.45;9.15;;;13.30;58.90;;;;;;4846688;29;20077;-76
2023/01/25 05:35:36;;;;;;;15.65;9.30;;;13.30;58.70;;;;;;4863544;29;20424;-78
2023/01/25 05:38:02;;;;;;;13.55;9.10;;;13.50;58.90;;;;;;4863369;29;20429;-77
2023/01/25 05:40:28;;;;;;;15.50;8.40;;;13.50;58.70;;;;;;4863416;29;20144;-79
2023/01/25 05:42:55;;;;;;;13.13;8.75;;;13.50;58.50;;;;;;4861771;29;20053;-78
2023/01/25 05:45:21;;;;;;;14.85;8.45;;;13.50;58.10;;;;;;4854223;29;20051;-79
2023/01/25 05:47:51;;;;;;;13.15;8.52;;;13.60;58.50;;;;;;4872496;29;20120;-78
2023/01/25 05:50:17;;;;;;;14.35;8.18;;;13.70;58.40;;;;;;4871940;29;20052;-76
2023/01/25 05:52:45;;;;;;;19.42;8.30;;;13.80;58.40;;;;;;4871230;29;20041;-78
2023/01/25 05:55:11;;;;;;;12.30;7.82;;;13.80;58.40;;;;;;4871645;29;20049;-77
2023/01/25 05:57:37;;;;;;;13.30;7.85;;;13.90;58.40;;;;;;4873359;29;20116;-76
2023/01/25 06:00:04;;;;;;;19.90;8.43;;;13.90;58.40;;;;;;4869310;29;20048;-76
2023/01/25 06:02:31;;;;;;;15.38;8.77;;;14.00;58.40;;;;;;4853703;29;20046;-76
2023/01/25 06:04:57;;;;;;;19.60;7.97;;;14.00;58.00;;;;;;4862917;29;20480;-76
2023/01/25 06:07:23;;;;;;;15.65;6.80;;;14.00;58.60;;;;;;4863736;29;20061;-76
2023/01/25 06:09:48;;;;;;;17.05;7.72;;;14.10;58.80;;;;;;4863449;29;20054;-77
2023/01/25 06:12:15;;;;;;;16.95;7.93;;;14.20;57.10;;;;;;4847021;29;20057;-75
2023/01/25 06:14:41;;;;;;;17.70;7.78;;;14.20;59.00;;;;;;4863492;29;20124;-79
2023/01/25 06:17:07;;;;;;;13.65;7.63;;;14.20;59.20;;;;;;4863554;29;20060;-77
2023/01/25 06:19:33;;;;;;;14.65;7.50;;;14.30;59.30;;;;;;4863191;29;20049;-70
2023/01/25 06:21:58;;;;;;;16.92;7.32;;;14.30;59.30;;;;;;4863668;29;20053;-78
2023/01/25 06:24:30;;;;;;;15.20;6.78;;;14.30;59.20;;;;;;4863011;29;20049;-80
2023/01/25 06:26:56;;;;;;;17.33;6.65;;;14.40;59.40;;;;;;4863400;29;20049;-76
2023/01/25 06:29:21;;;;;;;23.63;7.88;;;14.50;59.30;;;;;;4843511;29;20054;-75
2023/01/25 06:31:47;;;;;;;19.45;6.40;;;14.50;60.00;;;;;;4813999;29;20061;-78
2023/01/25 06:34:13;;;;;;;11.05;5.63;;;14.60;60.00;;;;;;4813420;29;20057;-78
2023/01/25 06:36:38;;;;;;;12.80;6.57;;;14.60;58.90;;;;;;4844878;29;20064;-80
2023/01/25 06:39:04;;;;;;;19.08;6.47;;;14.40;56.70;;;;;;4854883;29;20457;-79
2023/01/25 06:41:30;;;;;;;20.65;6.20;;;14.50;58.60;;;;;;4863022;29;20085;-77
2023/01/25 06:43:56;;;;;;;16.52;5.45;;;14.60;59.30;;;;;;4848928;29;20059;-76
2023/01/25 06:46:21;;;;;;;13.38;6.07;;;14.70;59.30;;;;;;4851423;29;20046;-77
2023/01/25 06:48:47;;;;;;;15.00;5.72;;;14.70;59.20;;;;;;4852555;29;20129;-81
2023/01/25 06:51:14;;;;;;;16.67;6.07;;;14.80;59.20;;;;;;4862854;29;20091;-76
2023/01/25 06:53:43;;;;;;;17.67;5.63;;;14.60;59.00;;;;;;4847276;29;20057;-77
2023/01/25 06:56:11;;;;;;;17.23;5.70;;;14.70;59.70;;;;;;4846935;29;20056;-76
2023/01/25 06:58:38;;;;;;;16.45;6.07;;;14.70;59.80;;;;;;4845619;29;20057;-80
2023/01/25 07:01:11;;;;;;;25.10;6.40;;;14.80;59.90;;;;;;4846749;29;20121;-77
2023/01/25 07:03:37;;;;;;;28.77;6.43;;;14.80;59.90;;;;;;4831188;29;20046;-79
2023/01/25 07:06:05;;;;;;;16.90;6.50;;;14.90;59.80;;;;;;4862726;29;20362;-79
2023/01/25 07:08:32;;;;;;;17.58;6.07;;;15.00;59.70;;;;;;4862843;29;20096;-77
2023/01/25 07:11:01;;;;;;;19.83;6.53;;;15.00;59.50;;;;;;4862446;29;20053;-78
2023/01/25 07:13:28;;;;;;;26.30;6.32;;;15.00;59.10;;;;;;4846473;29;20068;-79
2023/01/25 07:16:00;;;;;;;18.00;5.72;;;15.10;58.90;;;;;;4831279;29;20182;-80
2023/01/25 07:18:26;;;;;;;22.75;5.47;;;15.10;58.90;;;;;;4831090;29;20061;-81
2023/01/25 07:24:33;;;;;;;16.95;5.15;;;15.20;58.80;;;;;;4862028;29;20088;-76
2023/01/25 07:26:58;;;;;;;19.73;6.60;;;15.20;58.70;;;;;;4862399;29;20068;-77
2023/01/25 07:29:24;;;;;;;24.23;6.25;;;15.30;58.30;;;;;;4866458;29;20099;-79
2023/01/25 07:31:50;;;;;;;16.70;6.03;;;15.30;57.90;;;;;;4871268;29;20132;-81
2023/01/25 07:34:16;;;;;;;20.63;6.78;;;15.30;57.70;;;;;;4863659;29;20125;-79
2023/01/25 07:36:45;;;;;;;14.20;7.13;;;15.30;57.70;;;;;;4881234;29;20479;-78
2023/01/25 07:39:12;;;;;;;17.00;11.65;;;15.30;57.60;;;;;;4881089;29;20061;-77
2023/01/25 07:41:39;;;;;;;16.48;12.27;;;15.20;56.00;;;;;;4849536;29;20072;-77
2023/01/25 07:44:05;;;;;;;20.98;13.00;;;15.10;53.70;;;;;;4865991;29;20049;-77
2023/01/25 07:46:31;;;;;;;19.05;12.65;;;15.00;53.70;;;;;;4845453;29;20078;-77
2023/01/25 07:48:57;;;;;;;20.70;11.30;;;15.00;54.30;;;;;;4846270;29;20055;-77
2023/01/25 07:51:25;;;;;;;25.17;11.27;;;14.90;54.80;;;;;;4845892;29;20050;-77
2023/01/25 07:53:56;;;;;;;19.55;10.20;;;14.90;55.30;;;;;;4862577;29;20042;-79
2023/01/25 07:56:39;;;;;;;22.00;10.15;;;14.80;55.80;;;;;;4862370;29;20468;-77
2023/01/25 07:59:09;;;;;;;17.00;10.00;;;14.80;56.30;;;;;;4845615;29;20049;-75
2023/01/25 08:01:38;;;;;;;15.98;9.50;;;14.70;56.60;;;;;;4845590;29;20052;-77
2023/01/25 08:04:05;;;;;;;19.60;10.32;;;14.60;56.70;;;;;;4861349;29;20041;-78
2023/01/25 08:06:34;;;;;;;18.38;10.05;;;14.60;56.80;;;;;;4860821;29;20061;-76
2023/01/25 08:09:03;;;;;;;16.88;9.52;;;14.50;57.00;;;;;;4862682;29;20200;-71
2023/01/25 08:11:30;;;;;;;20.08;8.32;;;14.50;57.20;;;;;;4818418;29;20152;-76
2023/01/25 08:13:56;;;;;;;15.18;8.75;;;14.50;57.60;;;;;;4865730;29;20045;-76
2023/01/25 08:16:25;;;;;;;18.02;7.03;;;14.50;57.60;;;;;;4865603;29;20136;-75
2023/01/25 08:18:55;;;;;;;20.38;7.00;;;14.60;57.80;;;;;;4865629;29;20054;-79
2023/01/25 08:21:28;;;;;;;12.52;6.07;;;14.70;57.90;;;;;;4865408;29;20064;-77
2023/01/25 08:23:58;;;;;;;12.50;5.20;;;14.80;57.90;;;;;;4845579;29;20049;-76
2023/01/25 08:26:25;;;;;;;14.75;5.72;;;14.90;57.80;;;;;;4860540;29;20327;-77
2023/01/25 08:28:52;;;;;;;18.45;6.05;;;15.00;58.00;;;;;;4833480;29;20093;-77
2023/01/25 08:31:21;;;;;;;16.27;6.60;;;15.00;58.00;;;;;;4865447;29;20065;-76
2023/01/25 08:33:48;;;;;;;12.57;5.00;;;15.10;58.10;;;;;;4865168;29;20049;-76
2023/01/25 08:36:15;;;;;;;10.10;5.50;;;15.10;58.00;;;;;;4845816;29;20126;-77
2023/01/25 08:38:41;;;;;;;7.35;4.88;;;15.10;58.00;;;;;;4846800;29;20097;-76
2023/01/25 08:41:14;;;;;;;10.32;5.57;;;15.20;57.90;;;;;;4830671;29;20050;-76
2023/01/25 08:43:41;;;;;;;11.35;5.30;;;15.30;57.80;;;;;;4830277;29;20058;-78
2023/01/25 08:46:06;;;;;;;12.40;5.88;;;15.30;57.90;;;;;;4841002;29;20377;-75
2023/01/25 08:48:32;;;;;;;13.98;5.47;;;15.30;57.90;;;;;;4864969;29;20126;-75
2023/01/25 08:51:00;;;;;;;9.50;5.30;;;15.40;58.00;;;;;;4864961;29;20088;-78
2023/01/25 08:53:27;;;;;;;13.38;5.40;;;15.40;57.90;;;;;;4864673;29;20054;-77
2023/01/25 08:55:53;;;;;;;11.32;5.10;;;15.40;57.70;;;;;;4862972;29;20045;-79
2023/01/25 08:58:21;;;;;;;14.75;7.40;;;15.40;57.80;;;;;;4847916;29;20537;-78
2023/01/25 09:00:47;;;;;;;19.88;11.25;;;15.40;57.10;;;;;;4864423;29;20366;-79
2023/01/25 09:03:13;;;;;;;18.00;13.20;;;15.40;55.30;;;;;;4864351;29;20056;-79
2023/01/25 09:05:39;;;;;;;13.98;12.07;;;15.30;53.40;;;;;;4864743;29;20057;-77
2023/01/25 09:08:06;;;;;;;16.65;11.50;;;15.20;53.10;;;;;;4848720;29;20350;-79
2023/01/25 09:10:33;;;;;;;17.48;11.70;;;15.10;53.00;;;;;;4864898;29;20120;-76
2023/01/25 09:12:59;;;;;;;21.00;10.40;;;15.00;53.30;;;;;;4864698;29;20472;-77
2023/01/25 09:15:25;;;;;;;14.25;8.82;;;15.00;53.80;;;;;;4864236;29;20037;-78
2023/01/25 09:17:53;;;;;;;13.25;9.55;;;14.90;54.70;;;;;;4864581;29;20048;-77
2023/01/25 09:20:19;;;;;;;13.85;9.40;;;14.80;54.20;;;;;;4863549;29;20048;-78
2023/01/25 09:22:46;;;;;;;12.85;8.93;;;14.80;54.60;;;;;;4847541;29;20045;-77
2023/01/25 09:25:14;;;;;;;11.85;9.18;;;14.70;54.80;;;;;;4866596;29;20049;-80
2023/01/25 09:27:40;;;;;;;12.82;8.52;;;14.60;55.00;;;;;;4873060;29;20392;-78
2023/01/25 09:30:08;;;;;;;15.02;9.10;;;14.60;55.20;;;;;;4870632;29;20124;-79
2023/01/25 09:32:34;;;;;;;18.13;8.73;;;14.60;55.40;;;;;;4869959;29;20077;-77
2023/01/25 09:35:06;;;;;;;13.80;9.05;;;14.60;55.60;;;;;;4875682;29;20467;-78
2023/01/25 09:37:32;;;;;;;12.98;8.95;;;14.50;55.70;;;;;;4869766;29;20586;-78
2023/01/25 09:39:57;;;;;;;13.35;8.35;;;14.40;55.80;;;;;;4872678;29;20089;-78
2023/01/25 09:42:54;;;;;;;12.43;8.80;;;14.40;56.00;;;;;;4872786;29;20044;-77
2023/01/25 09:45:29;;;;;;;10.90;8.25;;;14.40;56.10;;;;;;4864702;29;20061;-77
2023/01/25 09:48:11;;;;;;;10.73;7.85;;;14.30;56.40;;;;;;4869606;29;20373;-78
2023/01/25 09:50:45;;;;;;;14.68;8.50;;;14.30;56.60;;;;;;4870036;29;20160;-77
2023/01/25 09:53:19;;;;;;;12.15;7.57;;;14.20;56.70;;;;;;4855523;29;20480;-78
2023/01/25 09:55:52;;;;;;;11.07;8.75;;;14.20;57.00;;;;;;4855514;29;20060;-75
2023/01/25 09:58:23;;;;;;;11.73;8.27;;;14.10;57.20;;;;;;4846953;29;20097;-77
2023/01/25 10:01:03;;;;;;;14.25;8.70;;;14.10;57.40;;;;;;4847099;29;20057;-75
2023/01/25 10:03:52;;;;;;;12.68;8.65;;;14.00;57.70;;;;;;4862930;29;20338;-77
2023/01/25 10:06:19;;;;;;;12.93;9.10;;;14.00;58.10;;;;;;4862767;29;20549;-75
2023/01/25 10:09:23;;;;;;;12.32;9.60;;;13.90;58.40;;;;;;4862756;29;20161;-76
2023/01/25 10:11:49;;;;;;;11.68;9.18;;;13.90;58.50;;;;;;4863326;29;20148;-76
2023/01/25 10:14:17;;;;;;;17.92;9.38;;;13.90;58.70;;;;;;4862750;29;20133;-76
2023/01/25 10:16:45;;;;;;;15.15;9.70;;;13.90;58.80;;;;;;4847431;29;20068;-77
2023/01/25 10:19:21;;;;;;;14.63;8.95;;;13.90;59.10;;;;;;4847571;29;20140;-77
2023/01/25 10:22:08;;;;;;;18.13;10.75;;;13.90;59.20;;;;;;4863787;29;20054;-76
2023/01/25 10:24:46;;;;;;;27.88;17.70;;;13.90;59.30;;;;;;4863130;29;20540;-76
2023/01/25 10:27:27;;;;;;;40.72;25.63;;;13.90;58.40;;;;;;4863375;29;20049;-76
2023/01/25 10:29:56;;;;;;;34.47;21.60;;;13.90;55.30;;;;;;4863928;29;20144;-77
2023/01/25 10:32:31;;;;;;;31.55;19.23;;;13.90;54.70;;;;;;4862837;29;20414;-78
2023/01/25 10:35:09;;;;;;;34.50;20.13;;;13.80;54.80;;;;;;4861582;29;20434;-77
2023/01/25 10:37:35;;;;;;;27.90;17.17;;;13.80;54.70;;;;;;4882162;29;20044;-77
2023/01/25 10:40:23;;;;;;;29.23;14.80;;;13.80;54.80;;;;;;4868235;29;20056;-76
2023/01/25 10:43:12;;;;;;;20.38;13.52;;;13.90;55.10;;;;;;4863028;29;20075;-75
2023/01/25 10:45:37;;;;;;;22.83;12.68;;;14.10;55.20;;;;;;4862928;29;20392;-77
2023/01/25 10:48:08;;;;;;;24.75;11.85;;;14.20;55.30;;;;;;4862998;29;20050;-75
2023/01/25 10:50:48;;;;;;;23.23;12.63;;;14.30;55.50;;;;;;4863948;29;20081;-75
2023/01/25 10:53:35;;;;;;;24.27;11.45;;;14.40;55.50;;;;;;4881548;29;20053;-74
2023/01/25 10:56:10;;;;;;;23.98;12.93;;;14.50;55.50;;;;;;4880898;29;20081;-76
2023/01/25 10:58:39;;;;;;;20.30;11.85;;;14.50;55.60;;;;;;4865328;29;20052;-76
2023/01/25 11:01:07;;;;;;;24.45;12.10;;;14.60;55.70;;;;;;4857722;29;20049;-77
2023/01/25 11:03:46;;;;;;;21.00;11.18;;;14.60;55.70;;;;;;4861422;29;20387;-77
2023/01/25 11:06:11;;;;;;;21.67;11.48;;;14.60;55.70;;;;;;4865851;29;20108;-76
2023/01/25 11:08:41;;;;;;;20.08;11.98;;;14.70;55.70;;;;;;4868304;29;20528;-77
2023/01/25 11:11:36;;;;;;;16.55;11.55;;;14.80;55.70;;;;;;4863695;29;20150;-77
2023/01/25 11:14:17;;;;;;;18.20;11.02;;;14.90;55.70;;;;;;4839473;29;20053;-77
2023/01/25 11:16:46;;;;;;;21.63;12.13;;;15.00;55.60;;;;;;4862643;29;20041;-79
2023/01/25 11:19:31;;;;;;;18.77;11.38;;;15.00;55.70;;;;;;4859500;29;20435;-79
2023/01/25 11:21:58;;;;;;;23.55;12.18;;;15.10;55.90;;;;;;4849565;29;20136;-79
2023/01/25 11:24:32;;;;;;;19.27;11.65;;;15.20;56.00;;;;;;4880849;29;20049;-79
2023/01/25 11:27:11;;;;;;;24.25;12.32;;;15.20;56.30;;;;;;4865051;29;20435;-78
2023/01/25 11:29:37;;;;;;;24.27;12.65;;;15.20;56.40;;;;;;4864489;29;20049;-77
2023/01/25 11:32:21;;;;;;;22.00;13.13;;;15.30;56.50;;;;;;4881495;29;20140;-78
2023/01/25 11:34:49;;;;;;;17.10;11.65;;;15.30;56.90;;;;;;4864538;29;20181;-78
2023/01/25 11:37:40;;;;;;;20.15;11.90;;;15.40;57.30;;;;;;4864889;29;20117;-77
2023/01/25 11:40:27;;;;;;;20.00;12.30;;;15.40;57.60;;;;;;4880389;29;20060;-78
2023/01/25 11:43:09;;;;;;;16.88;12.20;;;15.50;57.70;;;;;;4881341;29;20049;-78
2023/01/25 11:46:19;;;;;;;19.98;11.13;;;15.50;57.50;;;;;;4849543;29;20490;-78
2023/01/25 11:49:04;;;;;;;20.05;12.27;;;15.50;57.50;;;;;;4833593;29;20342;-78
2023/01/25 11:51:53;;;;;;;16.02;11.27;;;15.60;57.40;;;;;;4865870;29;20057;-77
2023/01/25 11:54:36;;;;;;;23.50;12.52;;;15.60;57.30;;;;;;4849643;29;20112;-79
2023/01/25 11:57:20;;;;;;;20.23;12.18;;;15.60;56.90;;;;;;4833919;29;20045;-78
2023/01/25 12:00:00;;;;;;;20.67;12.43;;;15.60;56.70;;;;;;4865595;29;20417;-79
2023/01/25 12:02:45;;;;;;;19.80;11.88;;;15.70;56.70;;;;;;4865840;29;20057;-77
2023/01/25 12:05:43;;;;;;;20.52;12.73;;;15.70;56.50;;;;;;4865034;29;20059;-78
2023/01/25 12:08:36;;;;;;;15.65;11.30;;;15.80;56.30;;;;;;4833893;29;20093;-77
2023/01/25 12:11:34;;;;;;;17.75;12.20;;;15.70;56.10;;;;;;4865275;29;20164;-77
2023/01/25 12:14:26;;;;;;;17.17;12.98;;;15.70;56.10;;;;;;4849502;29;20418;-79
2023/01/25 12:17:15;;;;;;;17.48;11.88;;;15.60;56.20;;;;;;4832049;29;20097;-77
2023/01/25 12:19:50;;;;;;;18.73;12.82;;;15.60;56.20;;;;;;4848658;29;20088;-77
2023/01/25 12:22:26;;;;;;;21.80;12.38;;;15.50;56.20;;;;;;4849297;29;20045;-77
2023/01/25 12:25:02;;;;;;;20.23;13.00;;;15.40;56.40;;;;;;4833767;29;20038;-77
2023/01/25 12:27:30;;;;;;;22.33;16.35;;;15.40;56.50;;;;;;4848864;29;20106;-77
2023/01/25 12:30:21;;;;;;;34.88;23.02;;;15.40;56.40;;;;;;4849086;29;20045;-79
2023/01/25 12:33:00;;;;;;;36.25;25.00;;;15.30;55.20;;;;;;4836010;29;20082;-76
2023/01/25 12:35:29;;;;;;;34.65;25.38;;;15.30;54.30;;;;;;4865264;29;20045;-77
2023/01/25 12:38:23;;;;;;;36.05;24.55;;;15.20;53.80;;;;;;4857062;29;20113;-78
2023/01/25 12:41:17;;;;;;;38.28;27.58;;;15.20;53.40;;;;;;4854935;29;20037;-78
2023/01/25 12:44:28;;;;;;;42.13;28.20;;;15.10;52.70;;;;;;4868903;29;20445;-78
2023/01/25 12:47:10;;;;;;;39.92;28.35;;;15.00;52.20;;;;;;4812180;29;20064;-78
2023/01/25 12:50:01;;;;;;;41.17;26.23;;;14.90;52.20;;;;;;4848804;29;20049;-77
2023/01/25 12:52:32;;;;;;;39.60;26.80;;;14.80;52.40;;;;;;4833870;29;20120;-78
2023/01/25 12:55:03;;;;;;;39.03;25.00;;;14.70;53.00;;;;;;4864723;29;20053;-78
2023/01/25 12:57:35;;;;;;;39.83;25.10;;;14.70;53.50;;;;;;4864134;29;20128;-76
2023/01/25 13:00:17;;;;;;;38.60;23.67;;;14.60;54.20;;;;;;4865068;29;20445;-77
2023/01/25 13:03:14;;;;;;;40.60;23.17;;;14.50;54.60;;;;;;4833507;29;20465;-79
2023/01/25 13:05:47;;;;;;;39.92;23.73;;;14.50;54.80;;;;;;4848561;29;20128;-77
2023/01/25 13:08:40;;;;;;;35.40;21.85;;;14.50;55.10;;;;;;4832844;29;20490;-74
2023/01/25 13:11:09;;;;;;;37.83;21.73;;;14.40;55.30;;;;;;4864571;29;20045;-75
2023/01/25 13:13:35;;;;;;;35.90;21.90;;;14.40;56.20;;;;;;4864497;29;20048;-79
2023/01/25 13:16:28;;;;;;;37.58;22.02;;;14.30;55.70;;;;;;4866643;29;20449;-78
2023/01/25 13:18:54;;;;;;;39.80;21.13;;;14.30;55.80;;;;;;4864816;29;20106;-76
2023/01/25 13:21:43;;;;;;;31.27;20.13;;;14.30;56.00;;;;;;4864317;29;20061;-77
2023/01/25 13:24:23;;;;;;;34.42;20.90;;;14.20;56.20;;;;;;4864422;29;20049;-77
2023/01/25 13:26:58;;;;;;;33.22;18.70;;;14.20;56.40;;;;;;4848175;29;20139;-78
2023/01/25 13:29:37;;;;;;;29.60;20.00;;;14.20;56.70;;;;;;4852957;29;20041;-77
2023/01/25 13:32:04;;;;;;;28.67;18.77;;;14.20;57.00;;;;;;4864241;29;20045;-77
2023/01/25 13:34:38;;;;;;;31.30;18.73;;;14.10;57.20;;;;;;4872720;29;20053;-76
2023/01/25 13:37:19;;;;;;;30.15;19.65;;;14.10;57.40;;;;;;4871755;29;20041;-76
2023/01/25 13:39:46;;;;;;;29.42;18.73;;;14.10;57.40;;;;;;4848030;29;20059;-75
2023/01/25 13:42:12;;;;;;;28.65;18.80;;;14.10;57.60;;;;;;4832503;29;20064;-76
2023/01/25 13:44:43;;;;;;;27.40;18.30;;;14.10;57.60;;;;;;4863767;29;20377;-78
2023/01/25 13:47:20;;;;;;;23.70;16.90;;;14.10;57.60;;;;;;4832294;29;20068;-77
2023/01/25 13:50:00;;;;;;;28.50;18.20;;;14.10;57.70;;;;;;4850322;29;20083;-78
2023/01/25 13:52:29;;;;;;;29.50;18.45;;;14.10;57.70;;;;;;4873358;29;20038;-75
2023/01/25 13:54:56;;;;;;;24.70;17.80;;;14.10;57.70;;;;;;4852967;29;20133;-74
2023/01/25 13:57:25;;;;;;;26.60;17.48;;;14.10;57.60;;;;;;4853685;29;20349;-76
2023/01/25 14:00:10;;;;;;;25.35;17.23;;;14.10;57.70;;;;;;4872786;29;20056;-76
2023/01/25 14:02:36;;;;;;;;;;;14.00;57.70;;;;;;4848240;29;20121;-77
2023/01/25 14:05:02;;;;;;;27.85;16.13;;;14.00;58.00;;;;;;4863631;29;19924;-76
2023/01/25 14:07:33;;;;;;;24.55;17.08;;;14.00;58.00;;;;;;4847833;29;20105;-79
2023/01/25 14:10:09;;;;;;;25.63;16.77;;;14.00;58.00;;;;;;4856522;29;20045;-76
2023/01/25 14:12:42;;;;;;;24.17;17.23;;;14.00;58.20;;;;;;4866283;29;20053;-75
2023/01/25 14:15:24;;;;;;;27.95;16.95;;;14.00;58.20;;;;;;4867114;29;20053;-76
2023/01/25 14:18:13;;;;;;;25.48;16.00;;;13.90;58.10;;;;;;4863443;29;20057;-75
2023/01/25 14:20:40;;;;;;;24.10;16.45;;;13.90;58.20;;;;;;4846971;29;20045;-76
2023/01/25 14:23:22;;;;;;;24.92;15.93;;;13.90;58.30;;;;;;4847273;29;20094;-76
2023/01/25 14:25:49;;;;;;;24.50;16.27;;;13.90;58.30;;;;;;4865681;29;20053;-78
2023/01/25 14:28:14;;;;;;;24.23;16.70;;;13.90;58.30;;;;;;4872596;29;20041;-76
2023/01/25 14:30:40;;;;;;;26.63;16.10;;;13.90;58.30;;;;;;4869740;29;20045;-78
2023/01/25 14:33:28;;;;;;;26.35;15.70;;;13.90;58.20;;;;;;4856878;29;20045;-76
2023/01/25 14:36:05;;;;;;;27.73;16.67;;;13.90;58.20;;;;;;4870377;29;20191;-76
2023/01/25 14:38:41;;;;;;;25.88;16.55;;;13.90;58.10;;;;;;4864402;29;20117;-75
2023/01/25 14:41:12;;;;;;;23.42;17.38;;;13.90;58.20;;;;;;4862908;29;20069;-76
2023/01/25 14:43:44;;;;;;;23.17;15.80;;;13.90;58.20;;;;;;4869824;29;20081;-76
2023/01/25 14:46:33;;;;;;;25.95;17.10;;;13.90;58.20;;;;;;4869624;29;20046;-77
2023/01/25 14:49:12;;;;;;;20.80;15.35;;;13.90;58.30;;;;;;4813480;29;20045;-77
2023/01/25 14:51:52;;;;;;;22.40;16.48;;;13.90;58.50;;;;;;4829825;29;20058;-77
2023/01/25 14:54:24;;;;;;;22.98;15.95;;;13.80;59.10;;;;;;4872971;29;20052;-77
2023/01/25 14:56:53;;;;;;;22.38;16.60;;;13.80;58.40;;;;;;4871832;29;20057;-76
2023/01/25 14:59:31;;;;;;;23.10;16.52;;;13.80;58.40;;;;;;4879044;29;20044;-76
2023/01/25 15:02:18;;;;;;;23.98;15.77;;;13.80;58.40;;;;;;4863269;29;20068;-76
2023/01/25 15:05:05;;;;;;;22.00;15.80;;;13.80;58.70;;;;;;4846485;29;20342;-77
2023/01/25 15:08:11;;;;;;;22.13;15.48;;;13.80;58.70;;;;;;4846375;29;20140;-77
2023/01/25 15:10:56;;;;;;;22.38;13.70;;;13.70;58.40;;;;;;4848193;29;20077;-77
2023/01/25 15:17:35;;;;;;;20.38;13.82;;;13.80;58.70;;;;;;4846607;29;20136;-78
2023/01/25 15:20:05;;;;;;;22.92;13.60;;;13.90;58.70;;;;;;4857529;29;20048;-76
2023/01/25 15:22:34;;;;;;;24.52;13.85;;;14.10;58.70;;;;;;4832630;29;20042;-77
2023/01/25 15:24:59;;;;;;;24.45;14.90;;;14.20;58.40;;;;;;4862365;29;20049;-79
2023/01/25 15:27:28;;;;;;;32.55;18.92;;;14.20;58.30;;;;;;4846407;29;20053;-79
2023/01/25 15:29:54;;;;;;;33.38;21.08;;;14.30;57.80;;;;;;4862336;29;20034;-76
2023/01/25 15:32:20;;;;;;;36.63;21.55;;;14.30;56.80;;;;;;4846287;29;20117;-79
2023/01/25 15:34:47;;;;;;;39.63;22.23;;;14.20;56.30;;;;;;4846542;29;20053;-79
2023/01/25 15:37:27;;;;;;;34.67;22.00;;;14.20;55.80;;;;;;4830962;29;20057;-78
2023/01/25 15:41:00;;;;;;;31.95;21.42;;;14.30;55.20;;;;;;4842679;29;20086;-79
2023/01/25 15:47:40;;;;;;;36.05;17.23;;;14.60;55.40;;;;;;4731430;30;20470;-74
2023/01/25 15:50:16;;;;;;;28.40;16.35;;;14.60;57.00;;;;;;4745130;30;20040;-79
2023/01/25 15:52:43;;;;;;;28.08;17.73;;;14.50;57.30;;;;;;4800096;29;20100;-74
2023/01/25 15:55:12;;;;;;;30.70;17.50;;;14.40;57.60;;;;;;4844139;29;20129;-77
2023/01/25 15:57:42;;;;;;;27.65;16.38;;;14.40;58.10;;;;;;4843982;29;20046;-77
2023/01/25 16:00:22;;;;;;;26.17;15.18;;;14.20;58.40;;;;;;4855493;29;20046;-78
2023/01/25 16:02:47;;;;;;;27.00;15.00;;;14.20;58.70;;;;;;4846296;29;20381;-75
2023/01/25 16:05:13;;;;;;;21.40;13.73;;;14.20;58.90;;;;;;4846133;29;20110;-77
2023/01/25 16:07:41;;;;;;;23.63;14.68;;;14.20;59.30;;;;;;4846136;29;20065;-75
2023/01/25 16:10:19;;;;;;;22.33;14.02;;;14.10;59.30;;;;;;4862060;29;20513;-71
2023/01/25 16:12:45;;;;;;;23.52;13.63;;;14.20;59.70;;;;;;4845654;29;20420;-73
2023/01/25 16:15:10;;;;;;;29.98;14.30;;;14.10;59.60;;;;;;4862488;29;20132;-77
2023/01/25 16:17:36;;;;;;;32.45;14.90;;;14.20;59.90;;;;;;4862694;29;20049;-72
2023/01/25 16:20:02;;;;;;;26.08;18.27;;;14.30;60.20;;;;;;4861872;29;20536;-70
2023/01/25 16:22:37;;;;;;;34.30;22.00;;;14.50;59.10;;;;;;4862195;29;20057;-75
2023/01/25 16:25:03;;;;;;;32.83;20.45;;;14.60;57.40;;;;;;4861974;29;20049;-79
2023/01/25 16:27:34;;;;;;;29.73;20.23;;;14.60;57.00;;;;;;4862097;29;20132;-77
2023/01/25 16:30:04;;;;;;;34.38;20.63;;;14.50;56.90;;;;;;4862903;29;20110;-75
2023/01/25 16:32:30;;;;;;;31.05;19.88;;;14.40;57.50;;;;;;4865374;29;20101;-76
2023/01/25 16:35:26;;;;;;;31.63;20.92;;;14.40;57.70;;;;;;4849144;29;20053;-76
2023/01/25 16:37:52;;;;;;;37.17;18.70;;;14.40;58.10;;;;;;4828209;29;20148;-74
2023/01/25 16:40:31;;;;;;;35.60;18.23;;;14.40;58.50;;;;;;4865309;29;20132;-77
2023/01/25 16:42:57;;;;;;;28.55;18.30;;;14.40;58.80;;;;;;4867414;29;20045;-77
2023/01/25 16:45:23;;;;;;;25.48;17.48;;;14.40;59.10;;;;;;4865241;29;20132;-79
2023/01/25 16:47:52;;;;;;;27.60;18.42;;;14.40;59.90;;;;;;4865161;29;20124;-78
2023/01/25 16:50:20;;;;;;;31.33;17.05;;;14.40;60.60;;;;;;4871827;29;20512;-78
2023/01/25 16:52:48;;;;;;;26.90;16.70;;;14.40;60.80;;;;;;4867247;29;20133;-79
2023/01/25 16:55:14;;;;;;;21.80;15.27;;;14.40;61.10;;;;;;4854681;29;20128;-78
2023/01/25 16:57:42;;;;;;;25.38;16.17;;;14.50;61.40;;;;;;4848918;29;20465;-77
2023/01/25 17:00:10;;;;;;;24.92;15.70;;;14.50;61.30;;;;;;4847492;29;20065;-77
2023/01/25 17:02:37;;;;;;;29.40;16.10;;;14.50;61.60;;;;;;4865106;29;20354;-77
2023/01/25 17:05:03;;;;;;;22.10;16.55;;;14.60;61.60;;;;;;4848013;29;20133;-77
2023/01/25 17:07:29;;;;;;;30.60;18.02;;;14.60;61.50;;;;;;4849083;29;20120;-77
2023/01/25 17:09:55;;;;;;;33.13;15.32;;;14.50;61.40;;;;;;4847451;29;20064;-78
2023/01/25 17:12:21;;;;;;;23.25;15.45;;;14.50;61.80;;;;;;4848203;29;20480;-77
2023/01/25 17:14:47;;;;;;;22.45;15.13;;;14.50;61.70;;;;;;4865437;29;20100;-77